sensor_id;sensor_type;location;lat;lon;timestamp;P1;durP1;ratioP1;P2;durP2;ratioP2
55031;SDS011;40928;51.076;7.950;2022-10-12T00:01:59;7.80;;;1.67;;
55031;SDS011;40928;51.076;7.950;2022-10-12T00:04:24;5.45;;;1.60;;
55031;SDS011;40928;51.076;7.950;2022-10-12T00:06:50;12.05;;;1.75;;
55031;SDS011;40928;51.076;7.950;2022-10-12T00:09:15;13.82;;;2.20;;
55031;SDS011;40928;51.076;7.950;2022-10-12T00:11:41;13.52;;;2.22;;
55031;SDS011;40928;51.076;7.950;2022-10-12T00:14:06;9.38;;;1.48;;
55031;SDS011;40928;51.076;7.950;2022-10-12T00:16:32;10.52;;;2.15;;
55031;SDS011;40928;51.076;7.950;2022-10-12T00:18:59;8.85;;;2.10;;
55031;SDS011;40928;51.076;7.950;2022-10-12T00:21:25;5.57;;;1.95;;
55031;SDS011;40928;51.076;7.950;2022-10-12T00:23:54;5.43;;;1.65;;
55031;SDS011;40928;51.076;7.950;2022-10-12T00:26:24;6.22;;;2.13;;
55031;SDS011;40928;51.076;7.950;2022-10-12T00:28:58;7.05;;;2.33;;
55031;SDS011;40928;51.076;7.950;2022-10-12T00:31:26;5.20;;;1.90;;
55031;SDS011;40928;51.076;7.950;2022-10-12T00:33:52;5.38;;;1.70;;
55031;SDS011;40928;51.076;7.950;2022-10-12T00:36:20;5.95;;;2.20;;
55031;SDS011;40928;51.076;7.950;2022-10-12T00:38:51;8.50;;;2.78;;
55031;SDS011;40928;51.076;7.950;2022-10-12T00:41:19;8.68;;;2.05;;
55031;SDS011;40928;51.076;7.950;2022-10-12T00:43:48;8.73;;;2.30;;
55031;SDS011;40928;51.076;7.950;2022-10-12T00:46:34;7.18;;;1.80;;
55031;SDS011;40928;51.076;7.950;2022-10-12T00:49:19;6.03;;;1.60;;
55031;SDS011;40928;51.076;7.950;2022-10-12T00:51:49;9.00;;;1.98;;
55031;SDS011;40928;51.076;7.950;2022-10-12T00:54:27;9.40;;;3.03;;
55031;SDS011;40928;51.076;7.950;2022-10-12T00:56:57;21.88;;;4.88;;
55031;SDS011;40928;51.076;7.950;2022-10-12T00:59:27;12.23;;;3.85;;
55031;SDS011;40928;51.076;7.950;2022-10-12T01:01:56;17.27;;;3.95;;
55031;SDS011;40928;51.076;7.950;2022-10-12T01:04:22;11.80;;;2.70;;
55031;SDS011;40928;51.076;7.950;2022-10-12T01:06:49;10.30;;;3.35;;
55031;SDS011;40928;51.076;7.950;2022-10-12T01:09:15;9.50;;;3.00;;
55031;SDS011;40928;51.076;7.950;2022-10-12T01:11:41;10.88;;;3.58;;
55031;SDS011;40928;51.076;7.950;2022-10-12T01:14:06;15.77;;;3.45;;
55031;SDS011;40928;51.076;7.950;2022-10-12T01:22:08;7.13;;;2.97;;
55031;SDS011;40928;51.076;7.950;2022-10-12T01:24:50;7.43;;;3.00;;
55031;SDS011;40928;51.076;7.950;2022-10-12T01:32:42;10.80;;;2.30;;
55031;SDS011;40928;51.076;7.950;2022-10-12T01:38:10;6.40;;;1.65;;
55031;SDS011;40928;51.076;7.950;2022-10-12T01:40:59;4.82;;;1.67;;
55031;SDS011;40928;51.076;7.950;2022-10-12T01:43:49;9.63;;;1.08;;
55031;SDS011;40928;51.076;7.950;2022-10-12T01:48:41;6.40;;;1.30;;
55031;SDS011;40928;51.076;7.950;2022-10-12T01:51:10;12.00;;;1.38;;
55031;SDS011;40928;51.076;7.950;2022-10-12T01:56:32;12.82;;;1.70;;
55031;SDS011;40928;51.076;7.950;2022-10-12T02:02:13;5.00;;;1.40;;
55031;SDS011;40928;51.076;7.950;2022-10-12T02:10:10;7.93;;;0.95;;
55031;SDS011;40928;51.076;7.950;2022-10-12T02:12:40;12.35;;;1.80;;
55031;SDS011;40928;51.076;7.950;2022-10-12T02:15:08;9.40;;;1.45;;
55031;SDS011;40928;51.076;7.950;2022-10-12T02:17:35;9.05;;;1.55;;
55031;SDS011;40928;51.076;7.950;2022-10-12T02:20:04;3.13;;;1.55;;
55031;SDS011;40928;51.076;7.950;2022-10-12T02:22:32;9.40;;;1.38;;
55031;SDS011;40928;51.076;7.950;2022-10-12T02:25:01;6.75;;;1.20;;
55031;SDS011;40928;51.076;7.950;2022-10-12T02:27:30;5.72;;;1.10;;
55031;SDS011;40928;51.076;7.950;2022-10-12T02:29:58;18.70;;;1.35;;
55031;SDS011;40928;51.076;7.950;2022-10-12T02:38:06;3.08;;;0.80;;
55031;SDS011;40928;51.076;7.950;2022-10-12T02:40:38;6.90;;;0.88;;
55031;SDS011;40928;51.076;7.950;2022-10-12T02:43:44;8.05;;;1.52;;
55031;SDS011;40928;51.076;7.950;2022-10-12T02:46:16;8.07;;;1.33;;
55031;SDS011;40928;51.076;7.950;2022-10-12T02:48:44;5.68;;;0.95;;
55031;SDS011;40928;51.076;7.950;2022-10-12T02:51:13;4.32;;;1.30;;
55031;SDS011;40928;51.076;7.950;2022-10-12T02:53:39;2.85;;;0.68;;
55031;SDS011;40928;51.076;7.950;2022-10-12T02:56:06;3.15;;;1.15;;
55031;SDS011;40928;51.076;7.950;2022-10-12T02:58:36;7.95;;;1.15;;
55031;SDS011;40928;51.076;7.950;2022-10-12T03:01:01;5.80;;;1.42;;
55031;SDS011;40928;51.076;7.950;2022-10-12T03:03:27;7.18;;;1.33;;
55031;SDS011;40928;51.076;7.950;2022-10-12T03:05:53;6.10;;;1.08;;
55031;SDS011;40928;51.076;7.950;2022-10-12T03:08:19;3.55;;;0.75;;
55031;SDS011;40928;51.076;7.950;2022-10-12T03:13:18;5.22;;;1.02;;
55031;SDS011;40928;51.076;7.950;2022-10-12T03:15:44;2.92;;;0.95;;
55031;SDS011;40928;51.076;7.950;2022-10-12T03:18:10;6.15;;;1.15;;
55031;SDS011;40928;51.076;7.950;2022-10-12T03:20:36;1.23;;;0.70;;
55031;SDS011;40928;51.076;7.950;2022-10-12T03:23:05;4.60;;;1.33;;
55031;SDS011;40928;51.076;7.950;2022-10-12T03:25:31;2.85;;;1.02;;
55031;SDS011;40928;51.076;7.950;2022-10-12T03:27:57;5.20;;;1.85;;
55031;SDS011;40928;51.076;7.950;2022-10-12T03:30:22;6.07;;;1.90;;
55031;SDS011;40928;51.076;7.950;2022-10-12T03:32:48;8.82;;;2.28;;
55031;SDS011;40928;51.076;7.950;2022-10-12T03:35:14;14.30;;;2.53;;
55031;SDS011;40928;51.076;7.950;2022-10-12T03:37:39;14.98;;;2.70;;
55031;SDS011;40928;51.076;7.950;2022-10-12T03:40:06;10.07;;;1.80;;
55031;SDS011;40928;51.076;7.950;2022-10-12T03:42:35;2.90;;;1.85;;
55031;SDS011;40928;51.076;7.950;2022-10-12T03:45:00;3.58;;;2.38;;
55031;SDS011;40928;51.076;7.950;2022-10-12T03:47:26;8.98;;;2.22;;
55031;SDS011;40928;51.076;7.950;2022-10-12T03:49:52;5.63;;;1.77;;
55031;SDS011;40928;51.076;7.950;2022-10-12T03:52:17;10.60;;;2.13;;
55031;SDS011;40928;51.076;7.950;2022-10-12T03:54:43;8.35;;;1.90;;
55031;SDS011;40928;51.076;7.950;2022-10-12T03:59:59;2.17;;;1.08;;
55031;SDS011;40928;51.076;7.950;2022-10-12T04:02:25;10.13;;;1.48;;
55031;SDS011;40928;51.076;7.950;2022-10-12T04:04:51;9.27;;;1.58;;
55031;SDS011;40928;51.076;7.950;2022-10-12T04:07:19;8.38;;;1.85;;
55031;SDS011;40928;51.076;7.950;2022-10-12T04:09:48;4.50;;;1.02;;
55031;SDS011;40928;51.076;7.950;2022-10-12T04:12:20;3.00;;;0.70;;
55031;SDS011;40928;51.076;7.950;2022-10-12T04:14:46;5.68;;;1.50;;
55031;SDS011;40928;51.076;7.950;2022-10-12T04:17:17;5.30;;;1.27;;
55031;SDS011;40928;51.076;7.950;2022-10-12T04:19:43;5.32;;;1.60;;
55031;SDS011;40928;51.076;7.950;2022-10-12T04:22:09;5.00;;;0.90;;
55031;SDS011;40928;51.076;7.950;2022-10-12T04:24:35;4.15;;;1.40;;
55031;SDS011;40928;51.076;7.950;2022-10-12T04:27:01;5.45;;;1.08;;
55031;SDS011;40928;51.076;7.950;2022-10-12T04:29:27;7.80;;;1.70;;
55031;SDS011;40928;51.076;7.950;2022-10-12T04:31:53;7.95;;;1.23;;
55031;SDS011;40928;51.076;7.950;2022-10-12T04:34:26;6.82;;;1.40;;
55031;SDS011;40928;51.076;7.950;2022-10-12T04:36:51;4.03;;;1.40;;
55031;SDS011;40928;51.076;7.950;2022-10-12T04:39:18;6.00;;;1.80;;
55031;SDS011;40928;51.076;7.950;2022-10-12T04:41:44;4.57;;;1.50;;
55031;SDS011;40928;51.076;7.950;2022-10-12T04:44:10;3.20;;;1.48;;
55031;SDS011;40928;51.076;7.950;2022-10-12T04:46:35;7.35;;;1.23;;
55031;SDS011;40928;51.076;7.950;2022-10-12T04:49:01;2.13;;;1.15;;
55031;SDS011;40928;51.076;7.950;2022-10-12T04:51:26;4.88;;;1.35;;
55031;SDS011;40928;51.076;7.950;2022-10-12T04:53:52;7.50;;;1.15;;
55031;SDS011;40928;51.076;7.950;2022-10-12T04:56:18;4.05;;;1.42;;
55031;SDS011;40928;51.076;7.950;2022-10-12T04:58:43;2.90;;;1.33;;
55031;SDS011;40928;51.076;7.950;2022-10-12T05:01:09;2.90;;;1.15;;
55031;SDS011;40928;51.076;7.950;2022-10-12T05:03:35;4.63;;;1.67;;
55031;SDS011;40928;51.076;7.950;2022-10-12T05:06:00;6.35;;;1.52;;
55031;SDS011;40928;51.076;7.950;2022-10-12T05:08:26;4.32;;;1.27;;
55031;SDS011;40928;51.076;7.950;2022-10-12T05:10:51;6.43;;;1.70;;
55031;SDS011;40928;51.076;7.950;2022-10-12T05:13:20;8.25;;;1.30;;
55031;SDS011;40928;51.076;7.950;2022-10-12T05:15:46;4.15;;;1.48;;
55031;SDS011;40928;51.076;7.950;2022-10-12T05:18:11;3.55;;;1.42;;
55031;SDS011;40928;51.076;7.950;2022-10-12T05:20:37;3.67;;;1.40;;
55031;SDS011;40928;51.076;7.950;2022-10-12T05:23:02;2.35;;;1.17;;
55031;SDS011;40928;51.076;7.950;2022-10-12T05:25:28;10.05;;;1.95;;
55031;SDS011;40928;51.076;7.950;2022-10-12T05:27:54;7.80;;;1.73;;
55031;SDS011;40928;51.076;7.950;2022-10-12T05:30:21;11.05;;;1.80;;
55031;SDS011;40928;51.076;7.950;2022-10-12T05:32:47;2.97;;;1.60;;
55031;SDS011;40928;51.076;7.950;2022-10-12T05:35:13;3.72;;;1.50;;
55031;SDS011;40928;51.076;7.950;2022-10-12T05:37:38;5.57;;;1.70;;
55031;SDS011;40928;51.076;7.950;2022-10-12T05:40:04;6.00;;;1.67;;
55031;SDS011;40928;51.076;7.950;2022-10-12T05:42:30;3.80;;;1.88;;
55031;SDS011;40928;51.076;7.950;2022-10-12T05:44:56;9.25;;;2.05;;
55031;SDS011;40928;51.076;7.950;2022-10-12T05:47:21;3.15;;;1.65;;
55031;SDS011;40928;51.076;7.950;2022-10-12T05:49:47;8.50;;;2.83;;
55031;SDS011;40928;51.076;7.950;2022-10-12T05:52:12;6.50;;;2.08;;
55031;SDS011;40928;51.076;7.950;2022-10-12T05:54:38;5.20;;;2.25;;
55031;SDS011;40928;51.076;7.950;2022-10-12T05:57:03;6.03;;;1.75;;
55031;SDS011;40928;51.076;7.950;2022-10-12T05:59:29;6.50;;;1.70;;
55031;SDS011;40928;51.076;7.950;2022-10-12T06:01:54;11.13;;;2.25;;
55031;SDS011;40928;51.076;7.950;2022-10-12T06:04:21;9.18;;;2.00;;
55031;SDS011;40928;51.076;7.950;2022-10-12T06:06:46;7.28;;;1.60;;
55031;SDS011;40928;51.076;7.950;2022-10-12T06:09:12;5.80;;;1.75;;
55031;SDS011;40928;51.076;7.950;2022-10-12T06:11:37;4.28;;;1.65;;
55031;SDS011;40928;51.076;7.950;2022-10-12T06:14:03;8.50;;;2.25;;
55031;SDS011;40928;51.076;7.950;2022-10-12T06:16:29;10.10;;;2.05;;
55031;SDS011;40928;51.076;7.950;2022-10-12T06:18:55;7.03;;;1.73;;
55031;SDS011;40928;51.076;7.950;2022-10-12T06:21:20;5.50;;;2.03;;
55031;SDS011;40928;51.076;7.950;2022-10-12T06:23:46;5.10;;;1.48;;
55031;SDS011;40928;51.076;7.950;2022-10-12T06:26:20;9.80;;;2.20;;
55031;SDS011;40928;51.076;7.950;2022-10-12T06:28:46;3.03;;;1.77;;
55031;SDS011;40928;51.076;7.950;2022-10-12T06:31:11;8.32;;;2.38;;
55031;SDS011;40928;51.076;7.950;2022-10-12T06:33:38;6.47;;;2.08;;
55031;SDS011;40928;51.076;7.950;2022-10-12T06:36:03;7.75;;;2.28;;
55031;SDS011;40928;51.076;7.950;2022-10-12T06:38:29;10.77;;;2.75;;
55031;SDS011;40928;51.076;7.950;2022-10-12T06:40:54;7.53;;;2.63;;
55031;SDS011;40928;51.076;7.950;2022-10-12T06:43:20;5.95;;;2.20;;
55031;SDS011;40928;51.076;7.950;2022-10-12T06:45:47;10.70;;;2.17;;
55031;SDS011;40928;51.076;7.950;2022-10-12T06:48:12;7.22;;;1.90;;
55031;SDS011;40928;51.076;7.950;2022-10-12T06:50:38;5.18;;;1.67;;
55031;SDS011;40928;51.076;7.950;2022-10-12T06:53:04;7.78;;;2.20;;
55031;SDS011;40928;51.076;7.950;2022-10-12T06:55:29;17.73;;;8.10;;
55031;SDS011;40928;51.076;7.950;2022-10-12T06:57:55;43.47;;;15.32;;
55031;SDS011;40928;51.076;7.950;2022-10-12T07:00:21;16.08;;;6.50;;
55031;SDS011;40928;51.076;7.950;2022-10-12T07:02:48;16.30;;;8.65;;
55031;SDS011;40928;51.076;7.950;2022-10-12T07:05:14;20.23;;;8.90;;
55031;SDS011;40928;51.076;7.950;2022-10-12T07:07:40;31.02;;;12.13;;
55031;SDS011;40928;51.076;7.950;2022-10-12T07:10:07;25.67;;;11.35;;
55031;SDS011;40928;51.076;7.950;2022-10-12T07:12:36;22.92;;;11.07;;
55031;SDS011;40928;51.076;7.950;2022-10-12T07:15:03;24.15;;;9.75;;
55031;SDS011;40928;51.076;7.950;2022-10-12T07:17:29;13.13;;;7.90;;
55031;SDS011;40928;51.076;7.950;2022-10-12T07:19:54;14.55;;;7.75;;
55031;SDS011;40928;51.076;7.950;2022-10-12T07:22:20;12.10;;;6.15;;
55031;SDS011;40928;51.076;7.950;2022-10-12T07:24:45;13.50;;;6.60;;
55031;SDS011;40928;51.076;7.950;2022-10-12T07:27:11;14.57;;;5.95;;
55031;SDS011;40928;51.076;7.950;2022-10-12T07:29:37;11.27;;;5.47;;
55031;SDS011;40928;51.076;7.950;2022-10-12T07:32:03;12.50;;;5.13;;
55031;SDS011;40928;51.076;7.950;2022-10-12T07:34:29;8.95;;;4.40;;
55031;SDS011;40928;51.076;7.950;2022-10-12T07:36:55;9.40;;;3.13;;
55031;SDS011;40928;51.076;7.950;2022-10-12T07:39:21;7.22;;;2.47;;
55031;SDS011;40928;51.076;7.950;2022-10-12T07:41:48;5.53;;;2.92;;
55031;SDS011;40928;51.076;7.950;2022-10-12T07:44:14;14.00;;;6.78;;
55031;SDS011;40928;51.076;7.950;2022-10-12T07:46:39;13.13;;;7.80;;
55031;SDS011;40928;51.076;7.950;2022-10-12T07:49:05;6.65;;;3.63;;
55031;SDS011;40928;51.076;7.950;2022-10-12T07:51:31;24.42;;;8.82;;
55031;SDS011;40928;51.076;7.950;2022-10-12T07:53:57;55.95;;;21.48;;
55031;SDS011;40928;51.076;7.950;2022-10-12T07:56:24;36.22;;;13.32;;
55031;SDS011;40928;51.076;7.950;2022-10-12T07:58:52;25.65;;;11.38;;
55031;SDS011;40928;51.076;7.950;2022-10-12T08:01:19;15.68;;;5.25;;
55031;SDS011;40928;51.076;7.950;2022-10-12T08:03:46;11.15;;;3.60;;
55031;SDS011;40928;51.076;7.950;2022-10-12T08:06:14;7.30;;;2.22;;
55031;SDS011;40928;51.076;7.950;2022-10-12T08:08:41;3.15;;;1.73;;
55031;SDS011;40928;51.076;7.950;2022-10-12T08:11:08;8.27;;;1.58;;
55031;SDS011;40928;51.076;7.950;2022-10-12T08:13:38;8.45;;;2.42;;
55031;SDS011;40928;51.076;7.950;2022-10-12T08:16:05;9.45;;;1.95;;
55031;SDS011;40928;51.076;7.950;2022-10-12T08:18:34;8.38;;;2.20;;
55031;SDS011;40928;51.076;7.950;2022-10-12T08:21:02;9.35;;;3.75;;
55031;SDS011;40928;51.076;7.950;2022-10-12T08:23:29;7.55;;;2.55;;
55031;SDS011;40928;51.076;7.950;2022-10-12T08:25:55;3.05;;;1.48;;
55031;SDS011;40928;51.076;7.950;2022-10-12T08:28:22;3.47;;;1.60;;
55031;SDS011;40928;51.076;7.950;2022-10-12T08:30:48;4.93;;;1.38;;
55031;SDS011;40928;51.076;7.950;2022-10-12T08:33:15;9.27;;;1.80;;
55031;SDS011;40928;51.076;7.950;2022-10-12T08:35:43;2.35;;;1.20;;
55031;SDS011;40928;51.076;7.950;2022-10-12T08:38:10;4.50;;;1.60;;
55031;SDS011;40928;51.076;7.950;2022-10-12T08:43:33;9.25;;;2.95;;
55031;SDS011;40928;51.076;7.950;2022-10-12T08:46:10;10.93;;;2.65;;
55031;SDS011;40928;51.076;7.950;2022-10-12T08:51:15;4.35;;;2.20;;
55031;SDS011;40928;51.076;7.950;2022-10-12T08:54:18;3.30;;;1.95;;
55031;SDS011;40928;51.076;7.950;2022-10-12T08:56:37;6.00;;;1.48;;
55031;SDS011;40928;51.076;7.950;2022-10-12T08:59:07;11.20;;;2.03;;
55031;SDS011;40928;51.076;7.950;2022-10-12T09:07:26;7.60;;;2.85;;
55031;SDS011;40928;51.076;7.950;2022-10-12T09:15:16;7.70;;;1.35;;
55031;SDS011;40928;51.076;7.950;2022-10-12T09:17:48;4.78;;;0.95;;
55031;SDS011;40928;51.076;7.950;2022-10-12T09:20:19;6.20;;;1.23;;
55031;SDS011;40928;51.076;7.950;2022-10-12T09:22:59;5.28;;;1.08;;
55031;SDS011;40928;51.076;7.950;2022-10-12T09:25:29;5.43;;;1.25;;
55031;SDS011;40928;51.076;7.950;2022-10-12T09:28:04;7.53;;;1.25;;
55031;SDS011;40928;51.076;7.950;2022-10-12T09:30:39;5.33;;;1.10;;
55031;SDS011;40928;51.076;7.950;2022-10-12T09:33:19;4.10;;;1.05;;
55031;SDS011;40928;51.076;7.950;2022-10-12T09:35:52;15.70;;;1.58;;
55031;SDS011;40928;51.076;7.950;2022-10-12T09:38:20;6.28;;;1.75;;
55031;SDS011;40928;51.076;7.950;2022-10-12T09:40:45;9.02;;;1.33;;
55031;SDS011;40928;51.076;7.950;2022-10-12T09:43:11;6.28;;;0.77;;
55031;SDS011;40928;51.076;7.950;2022-10-12T09:45:38;4.38;;;1.50;;
55031;SDS011;40928;51.076;7.950;2022-10-12T09:48:09;7.70;;;1.88;;
55031;SDS011;40928;51.076;7.950;2022-10-12T09:50:47;7.35;;;1.13;;
55031;SDS011;40928;51.076;7.950;2022-10-12T09:56:23;9.82;;;1.38;;
55031;SDS011;40928;51.076;7.950;2022-10-12T09:58:55;5.93;;;1.60;;
55031;SDS011;40928;51.076;7.950;2022-10-12T10:01:25;7.63;;;1.50;;
55031;SDS011;40928;51.076;7.950;2022-10-12T10:04:08;6.80;;;1.30;;
55031;SDS011;40928;51.076;7.950;2022-10-12T10:06:35;6.15;;;1.60;;
55031;SDS011;40928;51.076;7.950;2022-10-12T10:09:02;7.43;;;1.38;;
55031;SDS011;40928;51.076;7.950;2022-10-12T10:11:28;3.33;;;1.17;;
55031;SDS011;40928;51.076;7.950;2022-10-12T10:13:55;4.72;;;1.00;;
55031;SDS011;40928;51.076;7.950;2022-10-12T10:16:23;8.82;;;1.52;;
55031;SDS011;40928;51.076;7.950;2022-10-12T10:21:29;4.85;;;1.45;;
55031;SDS011;40928;51.076;7.950;2022-10-12T10:24:01;9.13;;;2.65;;
55031;SDS011;40928;51.076;7.950;2022-10-12T10:26:28;6.20;;;1.70;;
55031;SDS011;40928;51.076;7.950;2022-10-12T10:29:41;4.68;;;1.20;;
55031;SDS011;40928;51.076;7.950;2022-10-12T10:32:13;3.03;;;1.20;;
55031;SDS011;40928;51.076;7.950;2022-10-12T10:35:33;4.75;;;1.35;;
55031;SDS011;40928;51.076;7.950;2022-10-12T10:37:37;5.72;;;1.17;;
55031;SDS011;40928;51.076;7.950;2022-10-12T10:40:28;6.78;;;1.25;;
55031;SDS011;40928;51.076;7.950;2022-10-12T10:42:56;4.78;;;1.23;;
55031;SDS011;40928;51.076;7.950;2022-10-12T10:45:24;7.88;;;1.38;;
55031;SDS011;40928;51.076;7.950;2022-10-12T10:47:53;5.85;;;1.63;;
55031;SDS011;40928;51.076;7.950;2022-10-12T10:50:27;5.43;;;1.20;;
55031;SDS011;40928;51.076;7.950;2022-10-12T10:53:00;10.40;;;1.50;;
55031;SDS011;40928;51.076;7.950;2022-10-12T10:55:49;4.95;;;1.23;;
55031;SDS011;40928;51.076;7.950;2022-10-12T10:58:36;4.80;;;1.10;;
55031;SDS011;40928;51.076;7.950;2022-10-12T11:04:03;11.18;;;1.58;;
55031;SDS011;40928;51.076;7.950;2022-10-12T11:06:37;5.53;;;1.40;;
55031;SDS011;40928;51.076;7.950;2022-10-12T11:09:16;7.97;;;2.35;;
55031;SDS011;40928;51.076;7.950;2022-10-12T11:11:47;8.00;;;1.90;;
55031;SDS011;40928;51.076;7.950;2022-10-12T11:14:21;8.50;;;1.65;;
55031;SDS011;40928;51.076;7.950;2022-10-12T11:17:02;3.72;;;1.58;;
55031;SDS011;40928;51.076;7.950;2022-10-12T11:22:42;9.55;;;1.60;;
55031;SDS011;40928;51.076;7.950;2022-10-12T11:27:57;7.88;;;1.98;;
55031;SDS011;40928;51.076;7.950;2022-10-12T11:30:24;8.10;;;1.83;;
55031;SDS011;40928;51.076;7.950;2022-10-12T11:33:00;8.35;;;2.13;;
55031;SDS011;40928;51.076;7.950;2022-10-12T11:35:34;8.50;;;2.47;;
55031;SDS011;40928;51.076;7.950;2022-10-12T11:41:19;10.32;;;2.25;;
55031;SDS011;40928;51.076;7.950;2022-10-12T11:43:38;8.07;;;2.20;;
55031;SDS011;40928;51.076;7.950;2022-10-12T11:46:17;8.77;;;1.98;;
55031;SDS011;40928;51.076;7.950;2022-10-12T11:48:51;8.85;;;1.88;;
55031;SDS011;40928;51.076;7.950;2022-10-12T11:51:23;8.02;;;1.60;;
55031;SDS011;40928;51.076;7.950;2022-10-12T11:53:55;7.15;;;2.05;;
55031;SDS011;40928;51.076;7.950;2022-10-12T11:56:40;7.43;;;1.80;;
55031;SDS011;40928;51.076;7.950;2022-10-12T11:59:15;9.93;;;1.88;;
55031;SDS011;40928;51.076;7.950;2022-10-12T12:04:26;10.75;;;2.50;;
55031;SDS011;40928;51.076;7.950;2022-10-12T12:09:40;4.63;;;1.80;;
55031;SDS011;40928;51.076;7.950;2022-10-12T12:12:08;7.40;;;1.90;;
55031;SDS011;40928;51.076;7.950;2022-10-12T12:14:36;9.52;;;2.15;;
55031;SDS011;40928;51.076;7.950;2022-10-12T12:19:43;4.22;;;2.03;;
55031;SDS011;40928;51.076;7.950;2022-10-12T12:24:51;5.22;;;1.55;;
55031;SDS011;40928;51.076;7.950;2022-10-12T12:27:55;3.80;;;1.70;;
55031;SDS011;40928;51.076;7.950;2022-10-12T12:38:03;7.55;;;2.08;;
55031;SDS011;40928;51.076;7.950;2022-10-12T12:40:38;6.15;;;2.08;;
55031;SDS011;40928;51.076;7.950;2022-10-12T12:43:18;8.82;;;2.17;;
55031;SDS011;40928;51.076;7.950;2022-10-12T12:45:52;9.07;;;2.38;;
55031;SDS011;40928;51.076;7.950;2022-10-12T12:51:02;11.50;;;2.78;;
55031;SDS011;40928;51.076;7.950;2022-10-12T12:53:51;9.85;;;2.20;;
55031;SDS011;40928;51.076;7.950;2022-10-12T13:07:49;6.03;;;2.38;;
55031;SDS011;40928;51.076;7.950;2022-10-12T13:11:32;12.20;;;2.88;;
55031;SDS011;40928;51.076;7.950;2022-10-12T13:19:16;6.07;;;2.40;;
55031;SDS011;40928;51.076;7.950;2022-10-12T13:21:46;7.85;;;1.98;;
55031;SDS011;40928;51.076;7.950;2022-10-12T13:24:19;7.47;;;2.50;;
55031;SDS011;40928;51.076;7.950;2022-10-12T13:26:48;6.72;;;2.33;;
55031;SDS011;40928;51.076;7.950;2022-10-12T13:29:22;7.97;;;2.40;;
55031;SDS011;40928;51.076;7.950;2022-10-12T13:31:59;10.23;;;2.05;;
55031;SDS011;40928;51.076;7.950;2022-10-12T13:34:37;9.18;;;2.20;;
55031;SDS011;40928;51.076;7.950;2022-10-12T13:37:10;7.43;;;2.10;;
55031;SDS011;40928;51.076;7.950;2022-10-12T13:39:37;6.38;;;2.50;;
55031;SDS011;40928;51.076;7.950;2022-10-12T13:42:04;10.90;;;2.55;;
55031;SDS011;40928;51.076;7.950;2022-10-12T13:44:32;6.15;;;2.17;;
55031;SDS011;40928;51.076;7.950;2022-10-12T13:47:00;8.63;;;2.17;;
55031;SDS011;40928;51.076;7.950;2022-10-12T13:51:59;7.93;;;2.55;;
55031;SDS011;40928;51.076;7.950;2022-10-12T13:57:01;18.60;;;3.20;;
55031;SDS011;40928;51.076;7.950;2022-10-12T13:59:35;3.92;;;1.95;;
55031;SDS011;40928;51.076;7.950;2022-10-12T14:02:03;6.78;;;2.75;;
55031;SDS011;40928;51.076;7.950;2022-10-12T14:04:41;10.43;;;2.53;;
55031;SDS011;40928;51.076;7.950;2022-10-12T14:07:10;6.50;;;2.05;;
55031;SDS011;40928;51.076;7.950;2022-10-12T14:09:43;5.10;;;2.03;;
55031;SDS011;40928;51.076;7.950;2022-10-12T14:12:11;8.23;;;2.25;;
55031;SDS011;40928;51.076;7.950;2022-10-12T14:14:40;5.75;;;3.00;;
55031;SDS011;40928;51.076;7.950;2022-10-12T14:17:13;5.35;;;2.45;;
55031;SDS011;40928;51.076;7.950;2022-10-12T14:22:05;7.60;;;2.67;;
55031;SDS011;40928;51.076;7.950;2022-10-12T14:24:32;10.90;;;2.88;;
55031;SDS011;40928;51.076;7.950;2022-10-12T14:27:00;9.25;;;2.88;;
55031;SDS011;40928;51.076;7.950;2022-10-12T14:29:41;11.45;;;3.15;;
55031;SDS011;40928;51.076;7.950;2022-10-12T14:39:34;5.55;;;2.25;;
55031;SDS011;40928;51.076;7.950;2022-10-12T14:42:03;6.53;;;2.40;;
55031;SDS011;40928;51.076;7.950;2022-10-12T14:44:41;12.98;;;2.47;;
55031;SDS011;40928;51.076;7.950;2022-10-12T14:47:40;7.50;;;2.20;;
55031;SDS011;40928;51.076;7.950;2022-10-12T14:50:03;7.60;;;2.17;;
55031;SDS011;40928;51.076;7.950;2022-10-12T14:52:36;7.28;;;2.45;;
55031;SDS011;40928;51.076;7.950;2022-10-12T14:55:04;8.60;;;2.25;;
55031;SDS011;40928;51.076;7.950;2022-10-12T14:57:31;11.88;;;2.50;;
55031;SDS011;40928;51.076;7.950;2022-10-12T14:59:56;9.57;;;2.42;;
55031;SDS011;40928;51.076;7.950;2022-10-12T15:02:27;8.70;;;2.60;;
55031;SDS011;40928;51.076;7.950;2022-10-12T15:04:54;10.80;;;2.35;;
55031;SDS011;40928;51.076;7.950;2022-10-12T15:07:25;11.88;;;3.20;;
55031;SDS011;40928;51.076;7.950;2022-10-12T15:09:54;6.10;;;3.05;;
55031;SDS011;40928;51.076;7.950;2022-10-12T15:12:20;7.50;;;2.78;;
55031;SDS011;40928;51.076;7.950;2022-10-12T15:14:47;10.73;;;3.00;;
55031;SDS011;40928;51.076;7.950;2022-10-12T15:17:14;6.85;;;2.20;;
55031;SDS011;40928;51.076;7.950;2022-10-12T15:19:42;5.80;;;2.10;;
55031;SDS011;40928;51.076;7.950;2022-10-12T15:22:09;11.98;;;3.92;;
55031;SDS011;40928;51.076;7.950;2022-10-12T15:24:40;9.25;;;2.80;;
55031;SDS011;40928;51.076;7.950;2022-10-12T15:27:05;6.05;;;2.17;;
55031;SDS011;40928;51.076;7.950;2022-10-12T15:29:31;6.10;;;3.17;;
55031;SDS011;40928;51.076;7.950;2022-10-12T15:31:56;7.20;;;2.22;;
55031;SDS011;40928;51.076;7.950;2022-10-12T15:34:23;11.95;;;3.67;;
55031;SDS011;40928;51.076;7.950;2022-10-12T15:36:50;13.90;;;3.78;;
55031;SDS011;40928;51.076;7.950;2022-10-12T15:39:15;13.50;;;3.05;;
55031;SDS011;40928;51.076;7.950;2022-10-12T15:41:41;8.57;;;2.50;;
55031;SDS011;40928;51.076;7.950;2022-10-12T15:44:08;5.93;;;3.20;;
55031;SDS011;40928;51.076;7.950;2022-10-12T15:46:35;4.63;;;2.20;;
55031;SDS011;40928;51.076;7.950;2022-10-12T15:49:01;5.70;;;3.03;;
55031;SDS011;40928;51.076;7.950;2022-10-12T15:51:26;7.40;;;2.40;;
55031;SDS011;40928;51.076;7.950;2022-10-12T15:53:52;10.18;;;3.05;;
55031;SDS011;40928;51.076;7.950;2022-10-12T15:56:19;6.13;;;2.53;;
55031;SDS011;40928;51.076;7.950;2022-10-12T15:58:45;14.90;;;3.38;;
55031;SDS011;40928;51.076;7.950;2022-10-12T16:01:15;6.55;;;2.50;;
55031;SDS011;40928;51.076;7.950;2022-10-12T16:03:44;14.75;;;3.60;;
55031;SDS011;40928;51.076;7.950;2022-10-12T16:06:10;7.50;;;3.15;;
55031;SDS011;40928;51.076;7.950;2022-10-12T16:08:36;7.32;;;3.00;;
55031;SDS011;40928;51.076;7.950;2022-10-12T16:11:03;8.90;;;3.17;;
55031;SDS011;40928;51.076;7.950;2022-10-12T16:13:30;7.38;;;2.55;;
55031;SDS011;40928;51.076;7.950;2022-10-12T16:15:56;11.52;;;3.05;;
55031;SDS011;40928;51.076;7.950;2022-10-12T16:18:22;8.52;;;2.30;;
55031;SDS011;40928;51.076;7.950;2022-10-12T16:20:47;6.40;;;2.63;;
55031;SDS011;40928;51.076;7.950;2022-10-12T16:23:32;11.23;;;3.78;;
55031;SDS011;40928;51.076;7.950;2022-10-12T16:26:06;5.10;;;3.15;;
55031;SDS011;40928;51.076;7.950;2022-10-12T16:28:33;11.63;;;3.23;;
55031;SDS011;40928;51.076;7.950;2022-10-12T16:30:59;5.53;;;2.85;;
55031;SDS011;40928;51.076;7.950;2022-10-12T16:33:25;12.50;;;4.18;;
55031;SDS011;40928;51.076;7.950;2022-10-12T16:35:50;11.75;;;3.80;;
55031;SDS011;40928;51.076;7.950;2022-10-12T16:38:16;5.68;;;2.58;;
55031;SDS011;40928;51.076;7.950;2022-10-12T16:40:44;7.07;;;2.53;;
55031;SDS011;40928;51.076;7.950;2022-10-12T16:43:10;12.00;;;3.70;;
55031;SDS011;40928;51.076;7.950;2022-10-12T16:45:35;8.32;;;3.30;;
55031;SDS011;40928;51.076;7.950;2022-10-12T16:48:02;8.40;;;2.92;;
55031;SDS011;40928;51.076;7.950;2022-10-12T16:50:27;10.50;;;3.78;;
55031;SDS011;40928;51.076;7.950;2022-10-12T16:52:53;13.15;;;4.38;;
55031;SDS011;40928;51.076;7.950;2022-10-12T16:55:19;16.38;;;4.07;;
55031;SDS011;40928;51.076;7.950;2022-10-12T16:57:44;17.20;;;8.38;;
55031;SDS011;40928;51.076;7.950;2022-10-12T17:00:11;25.65;;;9.73;;
55031;SDS011;40928;51.076;7.950;2022-10-12T17:02:39;20.17;;;6.50;;